sensor_id;sensor_type;location;lat;lon;timestamp;temperature;humidity
20358;DHT22;75325;47.812;13.026;2024-02-14T00:00:33;8.90;55.80
20358;DHT22;75325;47.812;13.026;2024-02-14T00:03:01;8.90;55.70
20358;DHT22;75325;47.812;13.026;2024-02-14T00:05:31;8.90;55.70
20358;DHT22;75325;47.812;13.026;2024-02-14T00:08:00;8.90;55.60
20358;DHT22;75325;47.812;13.026;2024-02-14T00:10:30;8.90;55.70
20358;DHT22;75325;47.812;13.026;2024-02-14T00:12:58;8.90;55.70
20358;DHT22;75325;47.812;13.026;2024-02-14T00:15:26;8.90;55.70
20358;DHT22;75325;47.812;13.026;2024-02-14T00:17:55;8.80;55.70
20358;DHT22;75325;47.812;13.026;2024-02-14T00:20:23;8.80;55.70
20358;DHT22;75325;47.812;13.026;2024-02-14T00:22:53;8.50;55.70
20358;DHT22;75325;47.812;13.026;2024-02-14T00:25:22;8.80;55.90
20358;DHT22;75325;47.812;13.026;2024-02-14T00:27:50;8.80;56.00
20358;DHT22;75325;47.812;13.026;2024-02-14T00:30:18;8.80;56.00
20358;DHT22;75325;47.812;13.026;2024-02-14T00:32:47;8.90;56.00
20358;DHT22;75325;47.812;13.026;2024-02-14T00:35:16;8.90;56.00
20358;DHT22;75325;47.812;13.026;2024-02-14T00:37:45;8.90;56.00
20358;DHT22;75325;47.812;13.026;2024-02-14T00:40:14;8.90;55.90
20358;DHT22;75325;47.812;13.026;2024-02-14T00:42:43;8.90;55.90
20358;DHT22;75325;47.812;13.026;2024-02-14T00:45:11;9.00;56.20
20358;DHT22;75325;47.812;13.026;2024-02-14T00:47:40;8.90;55.80
20358;DHT22;75325;47.812;13.026;2024-02-14T00:50:09;9.00;55.80
20358;DHT22;75325;47.812;13.026;2024-02-14T00:52:41;9.00;56.00
20358;DHT22;75325;47.812;13.026;2024-02-14T00:55:10;8.90;55.60
20358;DHT22;75325;47.812;13.026;2024-02-14T00:57:40;8.90;56.10
20358;DHT22;75325;47.812;13.026;2024-02-14T01:00:09;8.90;55.70
20358;DHT22;75325;47.812;13.026;2024-02-14T01:02:38;8.80;55.70
20358;DHT22;75325;47.812;13.026;2024-02-14T01:05:07;8.80;55.90
20358;DHT22;75325;47.812;13.026;2024-02-14T01:07:36;8.80;55.70
20358;DHT22;75325;47.812;13.026;2024-02-14T01:10:05;8.80;55.70
20358;DHT22;75325;47.812;13.026;2024-02-14T01:12:33;8.80;55.80
20358;DHT22;75325;47.812;13.026;2024-02-14T01:15:03;8.80;55.60
20358;DHT22;75325;47.812;13.026;2024-02-14T01:17:32;8.80;55.60
20358;DHT22;75325;47.812;13.026;2024-02-14T01:20:04;8.80;55.60
20358;DHT22;75325;47.812;13.026;2024-02-14T01:22:33;8.70;55.60
20358;DHT22;75325;47.812;13.026;2024-02-14T01:25:01;8.70;55.60
20358;DHT22;75325;47.812;13.026;2024-02-14T01:27:30;8.70;55.60
20358;DHT22;75325;47.812;13.026;2024-02-14T01:29:58;8.60;55.90
20358;DHT22;75325;47.812;13.026;2024-02-14T01:32:28;8.60;55.60
20358;DHT22;75325;47.812;13.026;2024-02-14T01:34:57;8.60;55.60
20358;DHT22;75325;47.812;13.026;2024-02-14T01:37:26;8.60;55.60
20358;DHT22;75325;47.812;13.026;2024-02-14T01:39:56;8.60;55.60
20358;DHT22;75325;47.812;13.026;2024-02-14T01:42:24;8.50;55.60
20358;DHT22;75325;47.812;13.026;2024-02-14T01:44:54;8.50;55.60
20358;DHT22;75325;47.812;13.026;2024-02-14T01:47:23;8.50;55.70
20358;DHT22;75325;47.812;13.026;2024-02-14T01:49:53;8.60;55.80
20358;DHT22;75325;47.812;13.026;2024-02-14T01:52:21;8.60;55.80
20358;DHT22;75325;47.812;13.026;2024-02-14T01:54:50;8.60;55.80
20358;DHT22;75325;47.812;13.026;2024-02-14T01:57:19;8.60;55.70
20358;DHT22;75325;47.812;13.026;2024-02-14T01:59:49;8.70;55.90
20358;DHT22;75325;47.812;13.026;2024-02-14T02:02:23;8.70;55.90
20358;DHT22;75325;47.812;13.026;2024-02-14T02:04:54;8.80;56.50
20358;DHT22;75325;47.812;13.026;2024-02-14T02:07:23;8.80;55.80
20358;DHT22;75325;47.812;13.026;2024-02-14T02:09:52;8.80;55.80
20358;DHT22;75325;47.812;13.026;2024-02-14T02:12:20;8.90;55.80
20358;DHT22;75325;47.812;13.026;2024-02-14T02:14:49;8.90;55.70
20358;DHT22;75325;47.812;13.026;2024-02-14T02:17:18;8.90;55.80
20358;DHT22;75325;47.812;13.026;2024-02-14T02:19:48;8.90;55.60
20358;DHT22;75325;47.812;13.026;2024-02-14T02:22:17;9.00;55.70
20358;DHT22;75325;47.812;13.026;2024-02-14T02:24:47;9.00;55.60
20358;DHT22;75325;47.812;13.026;2024-02-14T02:27:17;9.10;55.80
20358;DHT22;75325;47.812;13.026;2024-02-14T02:29:46;9.20;55.50
20358;DHT22;75325;47.812;13.026;2024-02-14T02:32:14;9.20;55.30
20358;DHT22;75325;47.812;13.026;2024-02-14T02:34:44;9.30;55.40
20358;DHT22;75325;47.812;13.026;2024-02-14T02:37:12;9.30;55.30
20358;DHT22;75325;47.812;13.026;2024-02-14T02:39:41;9.30;55.30
20358;DHT22;75325;47.812;13.026;2024-02-14T02:42:10;9.40;55.30
20358;DHT22;75325;47.812;13.026;2024-02-14T02:44:39;9.40;55.30
20358;DHT22;75325;47.812;13.026;2024-02-14T02:47:07;9.50;55.20
20358;DHT22;75325;47.812;13.026;2024-02-14T02:49:37;9.50;55.10
20358;DHT22;75325;47.812;13.026;2024-02-14T02:52:06;9.60;55.40
20358;DHT22;75325;47.812;13.026;2024-02-14T02:54:34;9.70;55.10
20358;DHT22;75325;47.812;13.026;2024-02-14T02:57:03;9.80;55.00
20358;DHT22;75325;47.812;13.026;2024-02-14T02:59:33;9.80;54.90
20358;DHT22;75325;47.812;13.026;2024-02-14T03:02:02;9.80;54.70
20358;DHT22;75325;47.812;13.026;2024-02-14T03:04:35;9.90;54.70
20358;DHT22;75325;47.812;13.026;2024-02-14T03:07:18;9.90;54.60
20358;DHT22;75325;47.812;13.026;2024-02-14T03:09:47;9.90;54.60
20358;DHT22;75325;47.812;13.026;2024-02-14T03:12:15;9.90;54.50
20358;DHT22;75325;47.812;13.026;2024-02-14T03:14:47;9.90;54.40
20358;DHT22;75325;47.812;13.026;2024-02-14T03:17:16;9.90;54.50
20358;DHT22;75325;47.812;13.026;2024-02-14T03:19:45;9.90;54.40
20358;DHT22;75325;47.812;13.026;2024-02-14T03:22:15;9.90;54.10
20358;DHT22;75325;47.812;13.026;2024-02-14T03:24:45;9.90;54.30
20358;DHT22;75325;47.812;13.026;2024-02-14T03:27:14;9.90;54.20
20358;DHT22;75325;47.812;13.026;2024-02-14T03:29:44;9.90;54.20
20358;DHT22;75325;47.812;13.026;2024-02-14T03:32:15;9.90;54.20
20358;DHT22;75325;47.812;13.026;2024-02-14T03:34:44;9.80;54.20
20358;DHT22;75325;47.812;13.026;2024-02-14T03:37:12;9.80;54.20
20358;DHT22;75325;47.812;13.026;2024-02-14T03:39:41;9.80;54.20
20358;DHT22;75325;47.812;13.026;2024-02-14T03:42:10;9.80;54.20
20358;DHT22;75325;47.812;13.026;2024-02-14T03:44:38;9.80;54.20
20358;DHT22;75325;47.812;13.026;2024-02-14T03:47:07;9.80;54.20
20358;DHT22;75325;47.812;13.026;2024-02-14T03:49:37;9.90;54.30
20358;DHT22;75325;47.812;13.026;2024-02-14T03:52:06;9.90;54.20
20358;DHT22;75325;47.812;13.026;2024-02-14T03:54:37;9.90;54.10
20358;DHT22;75325;47.812;13.026;2024-02-14T03:57:06;10.00;54.20
20358;DHT22;75325;47.812;13.026;2024-02-14T03:59:36;10.00;54.20
20358;DHT22;75325;47.812;13.026;2024-02-14T04:02:06;10.00;54.10
20358;DHT22;75325;47.812;13.026;2024-02-14T04:04:41;10.00;54.10
20358;DHT22;75325;47.812;13.026;2024-02-14T04:07:11;10.00;54.00
20358;DHT22;75325;47.812;13.026;2024-02-14T04:09:39;10.00;54.10
20358;DHT22;75325;47.812;13.026;2024-02-14T04:12:08;10.10;54.10
20358;DHT22;75325;47.812;13.026;2024-02-14T04:14:37;10.10;53.90
20358;DHT22;75325;47.812;13.026;2024-02-14T04:17:06;10.10;53.80
20358;DHT22;75325;47.812;13.026;2024-02-14T04:19:35;10.10;53.80
20358;DHT22;75325;47.812;13.026;2024-02-14T04:22:05;10.10;53.80
20358;DHT22;75325;47.812;13.026;2024-02-14T04:24:35;10.10;53.90
20358;DHT22;75325;47.812;13.026;2024-02-14T04:27:03;10.10;53.80
20358;DHT22;75325;47.812;13.026;2024-02-14T04:29:32;10.10;54.30
20358;DHT22;75325;47.812;13.026;2024-02-14T04:32:02;10.10;53.70
20358;DHT22;75325;47.812;13.026;2024-02-14T04:34:31;10.10;53.60
20358;DHT22;75325;47.812;13.026;2024-02-14T04:37:00;10.10;53.60
20358;DHT22;75325;47.812;13.026;2024-02-14T04:39:31;10.10;53.80
20358;DHT22;75325;47.812;13.026;2024-02-14T04:41:59;10.10;53.80
20358;DHT22;75325;47.812;13.026;2024-02-14T04:44:29;10.10;54.00
20358;DHT22;75325;47.812;13.026;2024-02-14T04:46:58;10.20;53.80
20358;DHT22;75325;47.812;13.026;2024-02-14T04:49:27;10.20;53.70
20358;DHT22;75325;47.812;13.026;2024-02-14T04:51:57;10.10;53.60
20358;DHT22;75325;47.812;13.026;2024-02-14T04:54:26;10.10;53.70
20358;DHT22;75325;47.812;13.026;2024-02-14T04:56:56;10.10;53.60
20358;DHT22;75325;47.812;13.026;2024-02-14T04:59:29;10.10;53.50
20358;DHT22;75325;47.812;13.026;2024-02-14T05:01:57;10.10;53.50
20358;DHT22;75325;47.812;13.026;2024-02-14T05:04:26;10.10;53.40
20358;DHT22;75325;47.812;13.026;2024-02-14T05:06:54;10.00;53.30
20358;DHT22;75325;47.812;13.026;2024-02-14T05:09:25;9.90;53.30
20358;DHT22;75325;47.812;13.026;2024-02-14T05:11:55;9.80;53.30
20358;DHT22;75325;47.812;13.026;2024-02-14T05:14:25;9.70;53.40
20358;DHT22;75325;47.812;13.026;2024-02-14T05:16:58;9.70;53.80
20358;DHT22;75325;47.812;13.026;2024-02-14T05:19:28;9.60;53.80
20358;DHT22;75325;47.812;13.026;2024-02-14T05:21:57;9.50;53.60
20358;DHT22;75325;47.812;13.026;2024-02-14T05:24:25;9.40;53.60
20358;DHT22;75325;47.812;13.026;2024-02-14T05:26:57;9.40;53.70
20358;DHT22;75325;47.812;13.026;2024-02-14T05:29:25;9.30;53.70
20358;DHT22;75325;47.812;13.026;2024-02-14T05:31:54;9.30;53.70
20358;DHT22;75325;47.812;13.026;2024-02-14T05:34:23;9.30;53.80
20358;DHT22;75325;47.812;13.026;2024-02-14T05:36:51;9.20;53.90
20358;DHT22;75325;47.812;13.026;2024-02-14T05:39:20;9.20;54.50
20358;DHT22;75325;47.812;13.026;2024-02-14T05:41:49;9.20;53.90
20358;DHT22;75325;47.812;13.026;2024-02-14T05:44:18;9.20;53.80
20358;DHT22;75325;47.812;13.026;2024-02-14T05:46:47;9.20;53.80
20358;DHT22;75325;47.812;13.026;2024-02-14T05:49:15;9.20;53.80
20358;DHT22;75325;47.812;13.026;2024-02-14T05:51:44;9.20;53.90
20358;DHT22;75325;47.812;13.026;2024-02-14T05:54:12;9.20;53.80
20358;DHT22;75325;47.812;13.026;2024-02-14T05:56:40;9.20;53.80
20358;DHT22;75325;47.812;13.026;2024-02-14T05:59:09;9.20;53.90
20358;DHT22;75325;47.812;13.026;2024-02-14T06:01:40;9.10;53.80
20358;DHT22;75325;47.812;13.026;2024-02-14T06:04:08;9.10;53.80
20358;DHT22;75325;47.812;13.026;2024-02-14T06:06:37;9.10;53.80
20358;DHT22;75325;47.812;13.026;2024-02-14T06:09:05;9.10;53.80
20358;DHT22;75325;47.812;13.026;2024-02-14T06:11:37;9.00;53.70
20358;DHT22;75325;47.812;13.026;2024-02-14T06:14:06;9.00;53.70
20358;DHT22;75325;47.812;13.026;2024-02-14T06:16:35;9.00;53.80
20358;DHT22;75325;47.812;13.026;2024-02-14T06:19:05;8.90;53.80
20358;DHT22;75325;47.812;13.026;2024-02-14T06:21:33;8.90;53.80
20358;DHT22;75325;47.812;13.026;2024-02-14T06:24:02;8.80;53.80
20358;DHT22;75325;47.812;13.026;2024-02-14T06:26:31;8.80;53.90
20358;DHT22;75325;47.812;13.026;2024-02-14T06:29:00;8.80;53.90
20358;DHT22;75325;47.812;13.026;2024-02-14T06:31:33;8.80;53.90
20358;DHT22;75325;47.812;13.026;2024-02-14T06:34:01;8.70;53.90
20358;DHT22;75325;47.812;13.026;2024-02-14T06:36:32;8.70;53.90
20358;DHT22;75325;47.812;13.026;2024-02-14T06:39:00;8.70;54.00
20358;DHT22;75325;47.812;13.026;2024-02-14T06:41:28;8.70;54.10
20358;DHT22;75325;47.812;13.026;2024-02-14T06:43:58;8.70;54.10
20358;DHT22;75325;47.812;13.026;2024-02-14T06:46:27;8.70;54.10
20358;DHT22;75325;47.812;13.026;2024-02-14T06:48:56;8.70;54.10
20358;DHT22;75325;47.812;13.026;2024-02-14T06:51:24;8.70;54.10
20358;DHT22;75325;47.812;13.026;2024-02-14T06:53:54;8.70;54.10
20358;DHT22;75325;47.812;13.026;2024-02-14T06:56:22;8.80;54.20
20358;DHT22;75325;47.812;13.026;2024-02-14T06:58:50;8.80;54.20
20358;DHT22;75325;47.812;13.026;2024-02-14T07:01:21;8.90;54.30
20358;DHT22;75325;47.812;13.026;2024-02-14T07:03:50;9.00;54.20
20358;DHT22;75325;47.812;13.026;2024-02-14T07:06:18;9.00;54.20
20358;DHT22;75325;47.812;13.026;2024-02-14T07:08:47;9.10;54.10
20358;DHT22;75325;47.812;13.026;2024-02-14T07:11:17;9.20;54.10
20358;DHT22;75325;47.812;13.026;2024-02-14T07:13:45;9.20;53.90
20358;DHT22;75325;47.812;13.026;2024-02-14T07:16:14;9.20;53.90
20358;DHT22;75325;47.812;13.026;2024-02-14T07:18:42;9.30;53.90
20358;DHT22;75325;47.812;13.026;2024-02-14T07:21:11;9.30;53.90
20358;DHT22;75325;47.812;13.026;2024-02-14T07:23:39;9.40;53.80
20358;DHT22;75325;47.812;13.026;2024-02-14T07:26:07;9.40;53.70
20358;DHT22;75325;47.812;13.026;2024-02-14T07:28:37;9.40;53.60
20358;DHT22;75325;47.812;13.026;2024-02-14T07:31:06;9.50;53.60
20358;DHT22;75325;47.812;13.026;2024-02-14T07:33:34;9.50;53.70
20358;DHT22;75325;47.812;13.026;2024-02-14T07:36:04;9.70;53.80
20358;DHT22;75325;47.812;13.026;2024-02-14T07:38:32;9.90;53.90
20358;DHT22;75325;47.812;13.026;2024-02-14T07:41:00;10.20;53.80
20358;DHT22;75325;47.812;13.026;2024-02-14T07:43:29;10.40;53.40
20358;DHT22;75325;47.812;13.026;2024-02-14T07:45:59;10.60;52.90
20358;DHT22;75325;47.812;13.026;2024-02-14T07:48:27;10.70;52.50
20358;DHT22;75325;47.812;13.026;2024-02-14T07:50:56;10.80;52.70
20358;DHT22;75325;47.812;13.026;2024-02-14T07:53:26;11.00;52.50
20358;DHT22;75325;47.812;13.026;2024-02-14T07:55:54;11.20;52.60
20358;DHT22;75325;47.812;13.026;2024-02-14T07:58:24;11.40;52.50
20358;DHT22;75325;47.812;13.026;2024-02-14T08:00:52;11.50;52.20
20358;DHT22;75325;47.812;13.026;2024-02-14T08:03:22;11.50;51.80
20358;DHT22;75325;47.812;13.026;2024-02-14T08:05:51;11.60;51.80
20358;DHT22;75325;47.812;13.026;2024-02-14T08:08:20;11.70;52.10
20358;DHT22;75325;47.812;13.026;2024-02-14T08:10:49;11.80;52.00
20358;DHT22;75325;47.812;13.026;2024-02-14T08:13:17;11.80;51.70
20358;DHT22;75325;47.812;13.026;2024-02-14T08:15:45;11.80;51.50
20358;DHT22;75325;47.812;13.026;2024-02-14T08:18:14;11.90;51.80
20358;DHT22;75325;47.812;13.026;2024-02-14T08:20:44;11.90;51.30
20358;DHT22;75325;47.812;13.026;2024-02-14T08:23:12;11.90;51.40
20358;DHT22;75325;47.812;13.026;2024-02-14T08:25:40;11.90;51.50
20358;DHT22;75325;47.812;13.026;2024-02-14T08:28:09;12.00;52.00
20358;DHT22;75325;47.812;13.026;2024-02-14T08:30:38;12.00;51.20
20358;DHT22;75325;47.812;13.026;2024-02-14T08:33:06;12.00;51.20
20358;DHT22;75325;47.812;13.026;2024-02-14T08:35:35;12.00;51.20
20358;DHT22;75325;47.812;13.026;2024-02-14T08:38:11;12.10;51.30
20358;DHT22;75325;47.812;13.026;2024-02-14T08:40:39;12.20;51.40
20358;DHT22;75325;47.812;13.026;2024-02-14T08:43:07;12.30;51.10
20358;DHT22;75325;47.812;13.026;2024-02-14T08:45:36;12.30;51.10
20358;DHT22;75325;47.812;13.026;2024-02-14T08:48:06;12.50;51.30
20358;DHT22;75325;47.812;13.026;2024-02-14T08:50:35;12.60;51.00
20358;DHT22;75325;47.812;13.026;2024-02-14T08:53:04;12.60;51.00
20358;DHT22;75325;47.812;13.026;2024-02-14T08:55:34;12.70;51.10
20358;DHT22;75325;47.812;13.026;2024-02-14T08:58:05;12.90;51.10
20358;DHT22;75325;47.812;13.026;2024-02-14T09:00:33;13.00;50.80
20358;DHT22;75325;47.812;13.026;2024-02-14T09:03:03;13.10;50.80
20358;DHT22;75325;47.812;13.026;2024-02-14T09:05:31;13.10;50.60
20358;DHT22;75325;47.812;13.026;2024-02-14T09:08:00;13.20;50.60
20358;DHT22;75325;47.812;13.026;2024-02-14T09:10:29;13.20;50.60
20358;DHT22;75325;47.812;13.026;2024-02-14T09:12:58;13.30;50.60
20358;DHT22;75325;47.812;13.026;2024-02-14T09:15:28;13.40;50.40
20358;DHT22;75325;47.812;13.026;2024-02-14T09:17:57;13.50;50.40
20358;DHT22;75325;47.812;13.026;2024-02-14T09:20:27;13.50;50.20
20358;DHT22;75325;47.812;13.026;2024-02-14T09:22:56;13.50;50.40
20358;DHT22;75325;47.812;13.026;2024-02-14T09:25:25;13.70;50.40
20358;DHT22;75325;47.812;13.026;2024-02-14T09:27:54;14.00;50.60
20358;DHT22;75325;47.812;13.026;2024-02-14T09:30:23;14.40;50.70
20358;DHT22;75325;47.812;13.026;2024-02-14T09:33:04;15.00;50.50
20358;DHT22;75325;47.812;13.026;2024-02-14T09:35:33;15.60;50.10
20358;DHT22;75325;47.812;13.026;2024-02-14T09:38:02;16.20;49.80
20358;DHT22;75325;47.812;13.026;2024-02-14T09:40:30;16.80;49.30
20358;DHT22;75325;47.812;13.026;2024-02-14T09:43:02;17.70;49.10
20358;DHT22;75325;47.812;13.026;2024-02-14T09:45:33;18.20;47.60
20358;DHT22;75325;47.812;13.026;2024-02-14T09:48:02;18.10;46.70
20358;DHT22;75325;47.812;13.026;2024-02-14T09:50:33;17.80;46.50
20358;DHT22;75325;47.812;13.026;2024-02-14T09:53:04;17.80;47.30
20358;DHT22;75325;47.812;13.026;2024-02-14T09:55:37;18.00;46.70
20358;DHT22;75325;47.812;13.026;2024-02-14T09:58:06;18.00;46.30
20358;DHT22;75325;47.812;13.026;2024-02-14T10:00:36;17.80;46.20
20358;DHT22;75325;47.812;13.026;2024-02-14T10:03:05;17.60;45.80
20358;DHT22;75325;47.812;13.026;2024-02-14T10:05:34;17.80;46.80
20358;DHT22;75325;47.812;13.026;2024-02-14T10:08:02;17.90;46.30
20358;DHT22;75325;47.812;13.026;2024-02-14T10:10:32;17.90;45.90
20358;DHT22;75325;47.812;13.026;2024-02-14T10:13:04;17.60;45.50
20358;DHT22;75325;47.812;13.026;2024-02-14T10:15:33;17.40;46.00
20358;DHT22;75325;47.812;13.026;2024-02-14T10:18:03;17.10;45.70
20358;DHT22;75325;47.812;13.026;2024-02-14T10:20:33;16.70;45.10
20358;DHT22;75325;47.812;13.026;2024-02-14T10:23:02;16.30;45.30
20358;DHT22;75325;47.812;13.026;2024-02-14T10:25:33;15.90;45.60
20358;DHT22;75325;47.812;13.026;2024-02-14T10:28:04;15.70;46.30
20358;DHT22;75325;47.812;13.026;2024-02-14T10:30:36;15.60;47.50
20358;DHT22;75325;47.812;13.026;2024-02-14T10:33:06;15.60;47.00
20358;DHT22;75325;47.812;13.026;2024-02-14T10:35:51;15.60;47.10
20358;DHT22;75325;47.812;13.026;2024-02-14T10:38:24;15.50;46.90
20358;DHT22;75325;47.812;13.026;2024-02-14T10:40:54;15.70;47.30
20358;DHT22;75325;47.812;13.026;2024-02-14T10:43:23;15.80;47.00
20358;DHT22;75325;47.812;13.026;2024-02-14T10:45:53;15.80;47.00
20358;DHT22;75325;47.812;13.026;2024-02-14T10:48:23;16.00;47.10
20358;DHT22;75325;47.812;13.026;2024-02-14T10:50:54;16.10;46.90
20358;DHT22;75325;47.812;13.026;2024-02-14T10:53:26;16.30;47.10
20358;DHT22;75325;47.812;13.026;2024-02-14T10:55:58;16.50;47.10
20358;DHT22;75325;47.812;13.026;2024-02-14T10:58:28;16.80;46.90
20358;DHT22;75325;47.812;13.026;2024-02-14T11:00:58;17.00;46.60
20358;DHT22;75325;47.812;13.026;2024-02-14T11:03:29;17.00;46.20
20358;DHT22;75325;47.812;13.026;2024-02-14T11:06:01;17.00;45.90
20358;DHT22;75325;47.812;13.026;2024-02-14T11:08:32;16.90;46.00
20358;DHT22;75325;47.812;13.026;2024-02-14T11:11:02;16.70;45.90
20358;DHT22;75325;47.812;13.026;2024-02-14T11:13:35;16.50;46.20
20358;DHT22;75325;47.812;13.026;2024-02-14T11:16:08;16.40;46.40
20358;DHT22;75325;47.812;13.026;2024-02-14T11:18:38;16.50;46.80
20358;DHT22;75325;47.812;13.026;2024-02-14T11:21:16;16.70;46.90
20358;DHT22;75325;47.812;13.026;2024-02-14T11:23:52;16.80;46.80
20358;DHT22;75325;47.812;13.026;2024-02-14T11:26:21;17.00;46.70
20358;DHT22;75325;47.812;13.026;2024-02-14T11:28:59;17.10;46.60
20358;DHT22;75325;47.812;13.026;2024-02-14T11:31:33;17.10;46.40
20358;DHT22;75325;47.812;13.026;2024-02-14T11:34:07;17.20;46.20
20358;DHT22;75325;47.812;13.026;2024-02-14T11:36:37;17.10;46.10
20358;DHT22;75325;47.812;13.026;2024-02-14T11:39:05;17.10;46.30
20358;DHT22;75325;47.812;13.026;2024-02-14T11:41:34;17.20;46.30
20358;DHT22;75325;47.812;13.026;2024-02-14T11:44:04;17.30;46.20
20358;DHT22;75325;47.812;13.026;2024-02-14T11:46:33;17.30;45.80
20358;DHT22;75325;47.812;13.026;2024-02-14T11:49:03;17.20;45.80
20358;DHT22;75325;47.812;13.026;2024-02-14T11:51:35;17.30;46.00
20358;DHT22;75325;47.812;13.026;2024-02-14T11:54:04;17.30;45.80
20358;DHT22;75325;47.812;13.026;2024-02-14T11:56:36;17.20;45.60
20358;DHT22;75325;47.812;13.026;2024-02-14T11:59:05;16.90;45.70
20358;DHT22;75325;47.812;13.026;2024-02-14T12:01:36;16.70;46.20
20358;DHT22;75325;47.812;13.026;2024-02-14T12:04:09;16.80;46.40
20358;DHT22;75325;47.812;13.026;2024-02-14T12:06:40;16.90;46.40
20358;DHT22;75325;47.812;13.026;2024-02-14T12:09:09;17.00;46.10
20358;DHT22;75325;47.812;13.026;2024-02-14T12:11:41;16.80;45.40
20358;DHT22;75325;47.812;13.026;2024-02-14T12:14:11;16.70;45.50
20358;DHT22;75325;47.812;13.026;2024-02-14T12:16:41;16.50;45.40
20358;DHT22;75325;47.812;13.026;2024-02-14T12:19:14;15.80;45.30
20358;DHT22;75325;47.812;13.026;2024-02-14T12:21:45;14.90;46.20
20358;DHT22;75325;47.812;13.026;2024-02-14T12:24:14;14.30;47.40
20358;DHT22;75325;47.812;13.026;2024-02-14T12:26:43;13.90;48.50
20358;DHT22;75325;47.812;13.026;2024-02-14T12:29:12;13.70;49.30
20358;DHT22;75325;47.812;13.026;2024-02-14T12:31:41;13.60;49.70
20358;DHT22;75325;47.812;13.026;2024-02-14T12:34:11;13.60;50.20
20358;DHT22;75325;47.812;13.026;2024-02-14T12:36:40;13.70;50.50
20358;DHT22;75325;47.812;13.026;2024-02-14T12:39:10;13.80;50.50
20358;DHT22;75325;47.812;13.026;2024-02-14T12:41:40;13.90;50.50
20358;DHT22;75325;47.812;13.026;2024-02-14T12:44:08;14.10;50.50
20358;DHT22;75325;47.812;13.026;2024-02-14T12:46:37;14.20;50.40
20358;DHT22;75325;47.812;13.026;2024-02-14T12:49:06;14.40;50.00
20358;DHT22;75325;47.812;13.026;2024-02-14T12:51:36;14.60;49.80
20358;DHT22;75325;47.812;13.026;2024-02-14T12:54:05;14.70;49.80
20358;DHT22;75325;47.812;13.026;2024-02-14T12:56:36;14.90;49.80
20358;DHT22;75325;47.812;13.026;2024-02-14T12:59:04;15.10;49.60
20358;DHT22;75325;47.812;13.026;2024-02-14T13:01:33;15.30;49.40
20358;DHT22;75325;47.812;13.026;2024-02-14T13:04:01;15.40;49.20
20358;DHT22;75325;47.812;13.026;2024-02-14T13:06:32;15.40;49.10
20358;DHT22;75325;47.812;13.026;2024-02-14T13:09:01;15.50;49.20
20358;DHT22;75325;47.812;13.026;2024-02-14T13:11:32;15.60;49.10
20358;DHT22;75325;47.812;13.026;2024-02-14T13:14:02;15.70;49.00
20358;DHT22;75325;47.812;13.026;2024-02-14T13:16:31;15.80;48.80
20358;DHT22;75325;47.812;13.026;2024-02-14T13:18:59;16.00;48.50
20358;DHT22;75325;47.812;13.026;2024-02-14T13:21:28;16.10;48.50
20358;DHT22;75325;47.812;13.026;2024-02-14T13:23:56;16.20;48.00
20358;DHT22;75325;47.812;13.026;2024-02-14T13:26:25;16.30;47.80
20358;DHT22;75325;47.812;13.026;2024-02-14T13:28:57;16.40;47.70
20358;DHT22;75325;47.812;13.026;2024-02-14T13:31:26;16.60;47.50
20358;DHT22;75325;47.812;13.026;2024-02-14T13:33:55;16.60;47.30
20358;DHT22;75325;47.812;13.026;2024-02-14T13:36:23;16.60;47.20
20358;DHT22;75325;47.812;13.026;2024-02-14T13:38:52;16.70;47.20
20358;DHT22;75325;47.812;13.026;2024-02-14T13:41:20;16.80;47.30
20358;DHT22;75325;47.812;13.026;2024-02-14T13:43:49;16.80;46.90
20358;DHT22;75325;47.812;13.026;2024-02-14T13:46:17;16.80;46.80
20358;DHT22;75325;47.812;13.026;2024-02-14T13:48:48;16.70;46.70
20358;DHT22;75325;47.812;13.026;2024-02-14T13:51:17;16.70;46.80
20358;DHT22;75325;47.812;13.026;2024-02-14T13:53:45;16.60;46.70
20358;DHT22;75325;47.812;13.026;2024-02-14T13:56:14;16.60;46.70
20358;DHT22;75325;47.812;13.026;2024-02-14T13:58:42;16.50;46.80
20358;DHT22;75325;47.812;13.026;2024-02-14T14:01:11;16.50;46.80
20358;DHT22;75325;47.812;13.026;2024-02-14T14:03:40;16.40;46.90
20358;DHT22;75325;47.812;13.026;2024-02-14T14:06:10;16.40;46.90
20358;DHT22;75325;47.812;13.026;2024-02-14T14:08:38;16.40;47.00
20358;DHT22;75325;47.812;13.026;2024-02-14T14:11:07;16.50;47.00
20358;DHT22;75325;47.812;13.026;2024-02-14T14:13:36;16.60;47.00
20358;DHT22;75325;47.812;13.026;2024-02-14T14:16:04;16.60;46.80
20358;DHT22;75325;47.812;13.026;2024-02-14T14:18:33;16.60;46.80
20358;DHT22;75325;47.812;13.026;2024-02-14T14:21:01;16.60;46.70
20358;DHT22;75325;47.812;13.026;2024-02-14T14:23:32;16.60;46.60
20358;DHT22;75325;47.812;13.026;2024-02-14T14:26:00;16.60;46.70
20358;DHT22;75325;47.812;13.026;2024-02-14T14:28:30;16.60;46.70
20358;DHT22;75325;47.812;13.026;2024-02-14T14:30:59;16.60;46.70
20358;DHT22;75325;47.812;13.026;2024-02-14T14:33:29;16.50;46.60
20358;DHT22;75325;47.812;13.026;2024-02-14T14:35:57;16.50;46.60
20358;DHT22;75325;47.812;13.026;2024-02-14T14:38:26;16.60;46.80
20358;DHT22;75325;47.812;13.026;2024-02-14T14:40:59;16.60;46.80
20358;DHT22;75325;47.812;13.026;2024-02-14T14:43:28;16.50;46.50
20358;DHT22;75325;47.812;13.026;2024-02-14T14:45:56;16.50;46.50
20358;DHT22;75325;47.812;13.026;2024-02-14T14:48:25;16.50;46.60
20358;DHT22;75325;47.812;13.026;2024-02-14T14:50:54;16.50;46.60
20358;DHT22;75325;47.812;13.026;2024-02-14T14:53:22;16.50;46.40
20358;DHT22;75325;47.812;13.026;2024-02-14T14:55:54;16.40;46.60
20358;DHT22;75325;47.812;13.026;2024-02-14T14:58:25;16.40;46.60
20358;DHT22;75325;47.812;13.026;2024-02-14T15:00:55;16.40;46.60
20358;DHT22;75325;47.812;13.026;2024-02-14T15:03:26;16.40;46.60
20358;DHT22;75325;47.812;13.026;2024-02-14T15:05:54;16.40;46.80
20358;DHT22;75325;47.812;13.026;2024-02-14T15:08:24;16.30;46.70
20358;DHT22;75325;47.812;13.026;2024-02-14T15:10:55;16.30;46.80
20358;DHT22;75325;47.812;13.026;2024-02-14T15:13:26;16.20;46.70
20358;DHT22;75325;47.812;13.026;2024-02-14T15:15:55;15.90;46.70
20358;DHT22;75325;47.812;13.026;2024-02-14T15:18:25;15.30;47.30
20358;DHT22;75325;47.812;13.026;2024-02-14T15:20:53;14.80;48.00
20358;DHT22;75325;47.812;13.026;2024-02-14T15:23:22;14.50;48.70
20358;DHT22;75325;47.812;13.026;2024-02-14T15:25:51;14.30;49.20
20358;DHT22;75325;47.812;13.026;2024-02-14T15:28:21;14.20;49.60
20358;DHT22;75325;47.812;13.026;2024-02-14T15:30:55;14.20;49.80
20358;DHT22;75325;47.812;13.026;2024-02-14T15:33:40;14.30;50.00
20358;DHT22;75325;47.812;13.026;2024-02-14T15:36:10;14.40;49.90